sensor_id;sensor_type;location;lat;lon;timestamp;temperature;humidity
26262;DHT22;13988;52.446;13.280;2024-01-16T00:02:21;-0.20;99.90
26262;DHT22;13988;52.446;13.280;2024-01-16T00:04:47;-0.30;99.90
26262;DHT22;13988;52.446;13.280;2024-01-16T00:07:13;-0.40;99.90
26262;DHT22;13988;52.446;13.280;2024-01-16T00:09:38;-0.40;99.90
26262;DHT22;13988;52.446;13.280;2024-01-16T00:12:04;-0.40;99.90
26262;DHT22;13988;52.446;13.280;2024-01-16T00:14:30;-0.30;99.90
26262;DHT22;13988;52.446;13.280;2024-01-16T00:16:56;-0.30;99.90
26262;DHT22;13988;52.446;13.280;2024-01-16T00:19:21;-0.40;99.90
26262;DHT22;13988;52.446;13.280;2024-01-16T00:21:47;-0.50;99.90
26262;DHT22;13988;52.446;13.280;2024-01-16T00:24:13;-0.40;99.90
26262;DHT22;13988;52.446;13.280;2024-01-16T00:26:39;-0.40;99.90
26262;DHT22;13988;52.446;13.280;2024-01-16T00:29:05;-0.40;99.90
26262;DHT22;13988;52.446;13.280;2024-01-16T00:31:31;-0.40;99.90
26262;DHT22;13988;52.446;13.280;2024-01-16T00:33:57;-0.30;99.90
26262;DHT22;13988;52.446;13.280;2024-01-16T00:36:22;-0.40;99.90
26262;DHT22;13988;52.446;13.280;2024-01-16T00:38:48;-0.40;99.90
26262;DHT22;13988;52.446;13.280;2024-01-16T00:41:14;-0.40;99.90
26262;DHT22;13988;52.446;13.280;2024-01-16T00:43:45;-0.40;99.90
26262;DHT22;13988;52.446;13.280;2024-01-16T00:46:11;-0.40;99.90
26262;DHT22;13988;52.446;13.280;2024-01-16T00:48:36;-0.40;99.90
26262;DHT22;13988;52.446;13.280;2024-01-16T00:51:02;-0.40;99.90
26262;DHT22;13988;52.446;13.280;2024-01-16T00:53:28;-0.40;99.90
26262;DHT22;13988;52.446;13.280;2024-01-16T00:55:54;-0.40;99.90
26262;DHT22;13988;52.446;13.280;2024-01-16T00:58:23;-0.40;99.90
26262;DHT22;13988;52.446;13.280;2024-01-16T01:00:49;-0.50;99.90
26262;DHT22;13988;52.446;13.280;2024-01-16T01:03:14;-0.60;99.90
26262;DHT22;13988;52.446;13.280;2024-01-16T01:05:40;-0.60;99.90
26262;DHT22;13988;52.446;13.280;2024-01-16T01:08:06;-0.60;99.90
26262;DHT22;13988;52.446;13.280;2024-01-16T01:10:32;-0.70;99.90
26262;DHT22;13988;52.446;13.280;2024-01-16T01:12:57;-0.80;99.90
26262;DHT22;13988;52.446;13.280;2024-01-16T01:15:23;-0.80;99.90
26262;DHT22;13988;52.446;13.280;2024-01-16T01:17:49;-0.80;99.90
26262;DHT22;13988;52.446;13.280;2024-01-16T01:20:16;-0.80;99.90
26262;DHT22;13988;52.446;13.280;2024-01-16T01:22:43;-0.90;99.90
26262;DHT22;13988;52.446;13.280;2024-01-16T01:25:09;-0.90;99.90
26262;DHT22;13988;52.446;13.280;2024-01-16T01:27:40;-1.00;99.90
26262;DHT22;13988;52.446;13.280;2024-01-16T01:30:07;-1.00;99.90
26262;DHT22;13988;52.446;13.280;2024-01-16T01:32:36;-1.10;99.90
26262;DHT22;13988;52.446;13.280;2024-01-16T01:35:02;-1.10;99.90
26262;DHT22;13988;52.446;13.280;2024-01-16T01:37:28;-1.30;99.90
26262;DHT22;13988;52.446;13.280;2024-01-16T01:39:53;-1.40;99.90
26262;DHT22;13988;52.446;13.280;2024-01-16T01:42:19;-1.50;99.90
26262;DHT22;13988;52.446;13.280;2024-01-16T01:44:45;-1.40;99.90
26262;DHT22;13988;52.446;13.280;2024-01-16T01:47:11;-1.50;99.90
26262;DHT22;13988;52.446;13.280;2024-01-16T01:49:37;-1.50;99.90
26262;DHT22;13988;52.446;13.280;2024-01-16T01:52:04;-1.40;99.90
26262;DHT22;13988;52.446;13.280;2024-01-16T01:54:31;-1.50;99.90
26262;DHT22;13988;52.446;13.280;2024-01-16T01:56:57;-1.50;99.90
26262;DHT22;13988;52.446;13.280;2024-01-16T01:59:24;-1.40;99.90
26262;DHT22;13988;52.446;13.280;2024-01-16T02:01:51;-1.40;99.90
26262;DHT22;13988;52.446;13.280;2024-01-16T02:04:22;-1.50;99.90
26262;DHT22;13988;52.446;13.280;2024-01-16T02:06:48;-1.50;99.90
26262;DHT22;13988;52.446;13.280;2024-01-16T02:09:13;-1.60;99.90
26262;DHT22;13988;52.446;13.280;2024-01-16T02:11:43;-1.50;99.90
26262;DHT22;13988;52.446;13.280;2024-01-16T02:14:09;-1.50;99.90
26262;DHT22;13988;52.446;13.280;2024-01-16T02:16:39;-1.60;99.90
26262;DHT22;13988;52.446;13.280;2024-01-16T02:19:06;-1.50;99.90
26262;DHT22;13988;52.446;13.280;2024-01-16T02:21:51;-1.60;99.90
26262;DHT22;13988;52.446;13.280;2024-01-16T02:24:19;-1.60;99.90
26262;DHT22;13988;52.446;13.280;2024-01-16T02:26:45;-1.60;99.90
26262;DHT22;13988;52.446;13.280;2024-01-16T02:29:10;-1.40;99.90
26262;DHT22;13988;52.446;13.280;2024-01-16T02:31:36;-1.40;99.90
26262;DHT22;13988;52.446;13.280;2024-01-16T02:34:02;-1.40;99.90
26262;DHT22;13988;52.446;13.280;2024-01-16T02:36:29;-1.40;99.90
26262;DHT22;13988;52.446;13.280;2024-01-16T02:38:55;-1.30;99.90
26262;DHT22;13988;52.446;13.280;2024-01-16T02:41:21;-1.30;99.90
26262;DHT22;13988;52.446;13.280;2024-01-16T02:43:47;-1.20;99.90
26262;DHT22;13988;52.446;13.280;2024-01-16T02:46:15;-1.30;99.90
26262;DHT22;13988;52.446;13.280;2024-01-16T02:48:41;-1.30;99.90
26262;DHT22;13988;52.446;13.280;2024-01-16T02:51:08;-1.40;99.90
26262;DHT22;13988;52.446;13.280;2024-01-16T02:53:34;-1.30;99.90
26262;DHT22;13988;52.446;13.280;2024-01-16T02:56:00;-1.20;99.90
26262;DHT22;13988;52.446;13.280;2024-01-16T02:58:27;-1.20;99.90
26262;DHT22;13988;52.446;13.280;2024-01-16T03:00:52;-1.30;99.90
26262;DHT22;13988;52.446;13.280;2024-01-16T03:03:18;-1.30;99.90
26262;DHT22;13988;52.446;13.280;2024-01-16T03:05:44;-1.20;99.90
26262;DHT22;13988;52.446;13.280;2024-01-16T03:08:10;-1.20;99.90
26262;DHT22;13988;52.446;13.280;2024-01-16T03:10:36;-1.30;99.90
26262;DHT22;13988;52.446;13.280;2024-01-16T03:13:01;-1.40;99.90
26262;DHT22;13988;52.446;13.280;2024-01-16T03:15:28;-1.40;99.90
26262;DHT22;13988;52.446;13.280;2024-01-16T03:17:56;-1.40;99.90
26262;DHT22;13988;52.446;13.280;2024-01-16T03:20:22;-1.40;99.90
26262;DHT22;13988;52.446;13.280;2024-01-16T03:22:48;-1.30;99.90
26262;DHT22;13988;52.446;13.280;2024-01-16T03:25:14;-1.40;99.90
26262;DHT22;13988;52.446;13.280;2024-01-16T03:27:40;-1.40;99.90
26262;DHT22;13988;52.446;13.280;2024-01-16T03:30:06;-1.40;99.90
26262;DHT22;13988;52.446;13.280;2024-01-16T03:32:34;-1.40;99.90
26262;DHT22;13988;52.446;13.280;2024-01-16T03:34:59;-1.40;99.90
26262;DHT22;13988;52.446;13.280;2024-01-16T03:37:25;-1.40;99.90
26262;DHT22;13988;52.446;13.280;2024-01-16T03:39:51;-1.40;99.90
26262;DHT22;13988;52.446;13.280;2024-01-16T03:42:16;-1.40;99.90
26262;DHT22;13988;52.446;13.280;2024-01-16T03:44:42;-1.30;99.90
26262;DHT22;13988;52.446;13.280;2024-01-16T03:47:08;-1.30;99.90
26262;DHT22;13988;52.446;13.280;2024-01-16T03:49:34;-1.30;99.90
26262;DHT22;13988;52.446;13.280;2024-01-16T03:52:00;-1.30;99.90
26262;DHT22;13988;52.446;13.280;2024-01-16T03:54:26;-1.30;99.90
26262;DHT22;13988;52.446;13.280;2024-01-16T03:56:52;-1.30;99.90
26262;DHT22;13988;52.446;13.280;2024-01-16T03:59:18;-1.30;99.90
26262;DHT22;13988;52.446;13.280;2024-01-16T04:01:44;-1.30;99.90
26262;DHT22;13988;52.446;13.280;2024-01-16T04:04:11;-1.30;99.90
26262;DHT22;13988;52.446;13.280;2024-01-16T04:06:37;-1.30;99.90
26262;DHT22;13988;52.446;13.280;2024-01-16T04:09:03;-1.30;99.90
26262;DHT22;13988;52.446;13.280;2024-01-16T04:11:29;-1.30;99.90
26262;DHT22;13988;52.446;13.280;2024-01-16T04:13:55;-1.40;99.90
26262;DHT22;13988;52.446;13.280;2024-01-16T04:16:21;-1.40;99.90
26262;DHT22;13988;52.446;13.280;2024-01-16T04:18:47;-1.40;99.90
26262;DHT22;13988;52.446;13.280;2024-01-16T04:21:13;-1.40;99.90
26262;DHT22;13988;52.446;13.280;2024-01-16T04:23:38;-1.40;99.90
26262;DHT22;13988;52.446;13.280;2024-01-16T04:26:04;-1.50;99.90
26262;DHT22;13988;52.446;13.280;2024-01-16T04:28:30;-1.50;99.90
26262;DHT22;13988;52.446;13.280;2024-01-16T04:30:56;-1.50;99.90
26262;DHT22;13988;52.446;13.280;2024-01-16T04:33:21;-1.50;99.90
26262;DHT22;13988;52.446;13.280;2024-01-16T04:35:47;-1.60;99.90
26262;DHT22;13988;52.446;13.280;2024-01-16T04:38:13;-1.60;99.90
26262;DHT22;13988;52.446;13.280;2024-01-16T04:40:38;-1.60;99.90
26262;DHT22;13988;52.446;13.280;2024-01-16T04:43:04;-1.60;99.90
26262;DHT22;13988;52.446;13.280;2024-01-16T04:45:30;-1.60;99.90
26262;DHT22;13988;52.446;13.280;2024-01-16T04:47:56;-1.60;99.90
26262;DHT22;13988;52.446;13.280;2024-01-16T04:50:21;-1.60;99.90
26262;DHT22;13988;52.446;13.280;2024-01-16T04:52:48;-1.80;99.90
26262;DHT22;13988;52.446;13.280;2024-01-16T04:55:13;-1.70;99.90
26262;DHT22;13988;52.446;13.280;2024-01-16T04:57:39;-1.60;99.90
26262;DHT22;13988;52.446;13.280;2024-01-16T05:00:05;-1.60;99.90
26262;DHT22;13988;52.446;13.280;2024-01-16T05:02:33;-1.60;99.90
26262;DHT22;13988;52.446;13.280;2024-01-16T05:04:59;-1.60;99.90
26262;DHT22;13988;52.446;13.280;2024-01-16T05:07:25;-1.60;99.90
26262;DHT22;13988;52.446;13.280;2024-01-16T05:09:51;-1.60;99.90
26262;DHT22;13988;52.446;13.280;2024-01-16T05:12:17;-1.60;99.90
26262;DHT22;13988;52.446;13.280;2024-01-16T05:14:43;-1.60;99.90
26262;DHT22;13988;52.446;13.280;2024-01-16T05:17:08;-1.60;99.90
26262;DHT22;13988;52.446;13.280;2024-01-16T05:19:34;-1.60;99.90
26262;DHT22;13988;52.446;13.280;2024-01-16T05:22:00;-1.60;99.90
26262;DHT22;13988;52.446;13.280;2024-01-16T05:24:25;-1.60;99.90
26262;DHT22;13988;52.446;13.280;2024-01-16T05:26:51;-1.60;99.90
26262;DHT22;13988;52.446;13.280;2024-01-16T05:29:18;-1.60;99.90
26262;DHT22;13988;52.446;13.280;2024-01-16T05:31:44;-1.70;99.90
26262;DHT22;13988;52.446;13.280;2024-01-16T05:34:10;-1.70;99.90
26262;DHT22;13988;52.446;13.280;2024-01-16T05:36:36;-1.70;99.90
26262;DHT22;13988;52.446;13.280;2024-01-16T05:39:02;-1.80;99.90
26262;DHT22;13988;52.446;13.280;2024-01-16T05:41:32;-1.80;99.90
26262;DHT22;13988;52.446;13.280;2024-01-16T05:43:57;-1.80;99.90
26262;DHT22;13988;52.446;13.280;2024-01-16T05:46:23;-1.80;99.90
26262;DHT22;13988;52.446;13.280;2024-01-16T05:48:49;-1.90;99.90
26262;DHT22;13988;52.446;13.280;2024-01-16T05:51:14;-1.80;99.90
26262;DHT22;13988;52.446;13.280;2024-01-16T05:53:40;-1.80;99.90
26262;DHT22;13988;52.446;13.280;2024-01-16T05:56:05;-1.80;99.90
26262;DHT22;13988;52.446;13.280;2024-01-16T05:58:31;-1.90;99.90
26262;DHT22;13988;52.446;13.280;2024-01-16T06:01:01;-2.00;99.90
26262;DHT22;13988;52.446;13.280;2024-01-16T06:03:26;-1.90;99.90
26262;DHT22;13988;52.446;13.280;2024-01-16T06:05:52;-1.90;99.90
26262;DHT22;13988;52.446;13.280;2024-01-16T06:08:18;-1.80;99.90
26262;DHT22;13988;52.446;13.280;2024-01-16T06:10:45;-2.00;99.90
26262;DHT22;13988;52.446;13.280;2024-01-16T06:13:11;-2.00;99.90
26262;DHT22;13988;52.446;13.280;2024-01-16T06:15:36;-2.10;99.90
26262;DHT22;13988;52.446;13.280;2024-01-16T06:18:02;-2.00;99.90
26262;DHT22;13988;52.446;13.280;2024-01-16T06:20:28;-2.00;99.90
26262;DHT22;13988;52.446;13.280;2024-01-16T06:22:54;-1.90;99.90
26262;DHT22;13988;52.446;13.280;2024-01-16T06:25:20;-1.90;99.90
26262;DHT22;13988;52.446;13.280;2024-01-16T06:27:45;-1.90;99.90
26262;DHT22;13988;52.446;13.280;2024-01-16T06:30:11;-1.90;99.90
26262;DHT22;13988;52.446;13.280;2024-01-16T06:32:37;-1.90;99.90
26262;DHT22;13988;52.446;13.280;2024-01-16T06:35:03;-2.00;99.90
26262;DHT22;13988;52.446;13.280;2024-01-16T06:37:28;-2.00;99.90
26262;DHT22;13988;52.446;13.280;2024-01-16T06:39:54;-2.00;99.90
26262;DHT22;13988;52.446;13.280;2024-01-16T06:42:19;-2.00;99.90
26262;DHT22;13988;52.446;13.280;2024-01-16T06:44:46;-2.00;99.90
26262;DHT22;13988;52.446;13.280;2024-01-16T06:47:11;-2.00;99.90
26262;DHT22;13988;52.446;13.280;2024-01-16T06:49:37;-2.00;99.90
26262;DHT22;13988;52.446;13.280;2024-01-16T06:52:03;-1.90;99.90
26262;DHT22;13988;52.446;13.280;2024-01-16T06:54:28;-1.90;99.90
26262;DHT22;13988;52.446;13.280;2024-01-16T06:56:54;-1.90;99.90
26262;DHT22;13988;52.446;13.280;2024-01-16T06:59:20;-1.90;99.90
26262;DHT22;13988;52.446;13.280;2024-01-16T07:01:47;-1.90;99.90
26262;DHT22;13988;52.446;13.280;2024-01-16T07:04:13;-1.90;99.90
26262;DHT22;13988;52.446;13.280;2024-01-16T07:06:40;-1.90;99.90
26262;DHT22;13988;52.446;13.280;2024-01-16T07:09:05;-1.90;99.90
26262;DHT22;13988;52.446;13.280;2024-01-16T07:11:31;-1.90;99.90
26262;DHT22;13988;52.446;13.280;2024-01-16T07:13:56;-1.90;99.90
26262;DHT22;13988;52.446;13.280;2024-01-16T07:16:22;-1.90;99.90
26262;DHT22;13988;52.446;13.280;2024-01-16T07:18:48;-1.90;99.90
26262;DHT22;13988;52.446;13.280;2024-01-16T07:21:18;-1.80;99.90
26262;DHT22;13988;52.446;13.280;2024-01-16T07:23:44;-1.80;99.90
26262;DHT22;13988;52.446;13.280;2024-01-16T07:26:10;-1.70;99.90
26262;DHT22;13988;52.446;13.280;2024-01-16T07:28:35;-1.60;99.90
26262;DHT22;13988;52.446;13.280;2024-01-16T07:31:01;-1.60;99.90
26262;DHT22;13988;52.446;13.280;2024-01-16T07:33:27;-1.60;99.90
26262;DHT22;13988;52.446;13.280;2024-01-16T07:35:52;-1.50;99.90
26262;DHT22;13988;52.446;13.280;2024-01-16T07:38:18;-1.50;99.90
26262;DHT22;13988;52.446;13.280;2024-01-16T07:40:44;-1.50;99.90
26262;DHT22;13988;52.446;13.280;2024-01-16T07:43:10;-1.50;99.90
26262;DHT22;13988;52.446;13.280;2024-01-16T07:45:35;-1.50;99.90
26262;DHT22;13988;52.446;13.280;2024-01-16T07:48:01;-1.40;99.90
26262;DHT22;13988;52.446;13.280;2024-01-16T07:50:26;-1.40;99.90
26262;DHT22;13988;52.446;13.280;2024-01-16T07:52:52;-1.40;99.90
26262;DHT22;13988;52.446;13.280;2024-01-16T07:55:18;-1.40;99.90
26262;DHT22;13988;52.446;13.280;2024-01-16T07:57:44;-1.40;99.90
26262;DHT22;13988;52.446;13.280;2024-01-16T08:00:10;-1.40;99.90
26262;DHT22;13988;52.446;13.280;2024-01-16T08:02:38;-1.40;99.90
26262;DHT22;13988;52.446;13.280;2024-01-16T08:05:05;-1.30;99.90
26262;DHT22;13988;52.446;13.280;2024-01-16T08:07:31;-1.30;99.90
26262;DHT22;13988;52.446;13.280;2024-01-16T08:09:57;-1.30;99.90
26262;DHT22;13988;52.446;13.280;2024-01-16T08:12:22;-1.30;99.90
26262;DHT22;13988;52.446;13.280;2024-01-16T08:14:48;-1.20;99.90
26262;DHT22;13988;52.446;13.280;2024-01-16T08:17:14;-1.10;99.90
26262;DHT22;13988;52.446;13.280;2024-01-16T08:19:40;-1.10;99.90
26262;DHT22;13988;52.446;13.280;2024-01-16T08:22:06;-1.00;99.90
26262;DHT22;13988;52.446;13.280;2024-01-16T08:24:32;-0.90;99.90
26262;DHT22;13988;52.446;13.280;2024-01-16T08:26:57;-1.00;99.90
26262;DHT22;13988;52.446;13.280;2024-01-16T08:29:24;-1.00;99.90
26262;DHT22;13988;52.446;13.280;2024-01-16T08:31:50;-1.00;99.90
26262;DHT22;13988;52.446;13.280;2024-01-16T08:34:17;-1.00;99.90
26262;DHT22;13988;52.446;13.280;2024-01-16T08:36:44;-0.90;99.90
26262;DHT22;13988;52.446;13.280;2024-01-16T08:39:10;-0.80;99.90
26262;DHT22;13988;52.446;13.280;2024-01-16T08:41:36;-0.80;99.90
26262;DHT22;13988;52.446;13.280;2024-01-16T08:44:01;-0.70;99.90
26262;DHT22;13988;52.446;13.280;2024-01-16T08:46:27;-0.70;99.90
26262;DHT22;13988;52.446;13.280;2024-01-16T08:48:53;-0.70;99.90
26262;DHT22;13988;52.446;13.280;2024-01-16T08:51:19;-0.70;99.90
26262;DHT22;13988;52.446;13.280;2024-01-16T08:53:45;-0.70;99.90
26262;DHT22;13988;52.446;13.280;2024-01-16T08:56:11;-0.70;99.90
26262;DHT22;13988;52.446;13.280;2024-01-16T08:58:38;-0.60;99.90
26262;DHT22;13988;52.446;13.280;2024-01-16T09:01:07;-0.60;99.90
26262;DHT22;13988;52.446;13.280;2024-01-16T09:03:33;-0.50;99.90
26262;DHT22;13988;52.446;13.280;2024-01-16T09:06:00;-0.40;99.90
26262;DHT22;13988;52.446;13.280;2024-01-16T09:08:26;-0.20;99.90
26262;DHT22;13988;52.446;13.280;2024-01-16T09:10:53;-0.40;99.90
26262;DHT22;13988;52.446;13.280;2024-01-16T09:13:19;-0.40;99.90
26262;DHT22;13988;52.446;13.280;2024-01-16T09:15:46;-0.40;99.90
26262;DHT22;13988;52.446;13.280;2024-01-16T09:18:12;-0.50;99.90
26262;DHT22;13988;52.446;13.280;2024-01-16T09:20:38;-0.30;99.90
26262;DHT22;13988;52.446;13.280;2024-01-16T09:23:04;-0.30;99.90
26262;DHT22;13988;52.446;13.280;2024-01-16T09:25:29;-0.30;99.90
26262;DHT22;13988;52.446;13.280;2024-01-16T09:27:55;-0.30;99.90
26262;DHT22;13988;52.446;13.280;2024-01-16T09:30:21;-0.40;99.90
26262;DHT22;13988;52.446;13.280;2024-01-16T09:32:48;-0.30;99.90
26262;DHT22;13988;52.446;13.280;2024-01-16T09:35:14;-0.30;99.90
26262;DHT22;13988;52.446;13.280;2024-01-16T09:37:40;-0.30;99.90
26262;DHT22;13988;52.446;13.280;2024-01-16T09:40:06;-0.30;99.90
26262;DHT22;13988;52.446;13.280;2024-01-16T09:42:32;-0.30;99.90
26262;DHT22;13988;52.446;13.280;2024-01-16T09:45:00;-0.20;99.90
26262;DHT22;13988;52.446;13.280;2024-01-16T09:47:30;-0.20;99.90
26262;DHT22;13988;52.446;13.280;2024-01-16T09:49:57;-0.20;99.90
26262;DHT22;13988;52.446;13.280;2024-01-16T09:52:24;-0.10;99.90
26262;DHT22;13988;52.446;13.280;2024-01-16T09:54:50;-0.10;99.90
26262;DHT22;13988;52.446;13.280;2024-01-16T09:57:19;-0.10;99.90
26262;DHT22;13988;52.446;13.280;2024-01-16T09:59:48;0.00;99.90
26262;DHT22;13988;52.446;13.280;2024-01-16T10:02:14;0.10;99.90
26262;DHT22;13988;52.446;13.280;2024-01-16T10:04:43;0.20;99.90
26262;DHT22;13988;52.446;13.280;2024-01-16T10:07:10;0.30;99.90
26262;DHT22;13988;52.446;13.280;2024-01-16T10:09:38;0.20;99.90
26262;DHT22;13988;52.446;13.280;2024-01-16T10:12:08;0.30;99.90
26262;DHT22;13988;52.446;13.280;2024-01-16T10:14:37;0.40;99.90
26262;DHT22;13988;52.446;13.280;2024-01-16T10:17:05;0.40;99.90
26262;DHT22;13988;52.446;13.280;2024-01-16T10:19:31;0.50;99.90
26262;DHT22;13988;52.446;13.280;2024-01-16T10:22:04;0.50;99.90
26262;DHT22;13988;52.446;13.280;2024-01-16T10:24:31;0.50;99.90
26262;DHT22;13988;52.446;13.280;2024-01-16T10:26:59;0.50;99.90
26262;DHT22;13988;52.446;13.280;2024-01-16T10:29:26;0.50;99.90
26262;DHT22;13988;52.446;13.280;2024-01-16T10:31:52;0.60;99.90
26262;DHT22;13988;52.446;13.280;2024-01-16T10:34:22;0.60;99.90
26262;DHT22;13988;52.446;13.280;2024-01-16T10:36:50;0.60;99.90
26262;DHT22;13988;52.446;13.280;2024-01-16T10:39:16;0.60;99.90
26262;DHT22;13988;52.446;13.280;2024-01-16T10:41:42;0.70;99.90
26262;DHT22;13988;52.446;13.280;2024-01-16T10:44:08;0.60;99.90
26262;DHT22;13988;52.446;13.280;2024-01-16T10:46:35;0.50;99.90
26262;DHT22;13988;52.446;13.280;2024-01-16T10:49:04;0.50;99.90
26262;DHT22;13988;52.446;13.280;2024-01-16T10:51:31;0.50;99.90
26262;DHT22;13988;52.446;13.280;2024-01-16T10:54:04;0.40;99.90
26262;DHT22;13988;52.446;13.280;2024-01-16T10:56:36;0.50;99.90
26262;DHT22;13988;52.446;13.280;2024-01-16T10:59:27;0.60;99.90
26262;DHT22;13988;52.446;13.280;2024-01-16T11:01:59;0.50;99.90
26262;DHT22;13988;52.446;13.280;2024-01-16T11:04:27;0.60;99.90
26262;DHT22;13988;52.446;13.280;2024-01-16T11:06:54;0.60;99.90
26262;DHT22;13988;52.446;13.280;2024-01-16T11:09:20;0.60;99.90
26262;DHT22;13988;52.446;13.280;2024-01-16T11:11:46;0.60;99.90
26262;DHT22;13988;52.446;13.280;2024-01-16T11:14:15;0.70;99.90
26262;DHT22;13988;52.446;13.280;2024-01-16T11:16:42;0.70;99.90
26262;DHT22;13988;52.446;13.280;2024-01-16T11:19:09;0.70;99.90
26262;DHT22;13988;52.446;13.280;2024-01-16T11:21:36;0.60;99.90
26262;DHT22;13988;52.446;13.280;2024-01-16T11:24:03;0.60;99.90
26262;DHT22;13988;52.446;13.280;2024-01-16T11:26:33;0.60;99.90
26262;DHT22;13988;52.446;13.280;2024-01-16T11:29:00;0.70;99.90
26262;DHT22;13988;52.446;13.280;2024-01-16T11:31:33;0.70;99.90
26262;DHT22;13988;52.446;13.280;2024-01-16T11:33:59;0.60;99.90
26262;DHT22;13988;52.446;13.280;2024-01-16T11:39:20;0.50;99.90
26262;DHT22;13988;52.446;13.280;2024-01-16T11:41:55;0.50;99.90
26262;DHT22;13988;52.446;13.280;2024-01-16T11:44:50;0.60;99.90
26262;DHT22;13988;52.446;13.280;2024-01-16T11:47:23;0.60;99.90
26262;DHT22;13988;52.446;13.280;2024-01-16T11:49:52;0.60;99.90
26262;DHT22;13988;52.446;13.280;2024-01-16T11:52:46;0.60;99.90
26262;DHT22;13988;52.446;13.280;2024-01-16T11:55:29;0.70;99.90
26262;DHT22;13988;52.446;13.280;2024-01-16T11:58:20;0.70;99.90
26262;DHT22;13988;52.446;13.280;2024-01-16T12:00:50;0.70;99.90
26262;DHT22;13988;52.446;13.280;2024-01-16T12:03:21;0.80;99.90
26262;DHT22;13988;52.446;13.280;2024-01-16T12:06:00;0.70;99.90
26262;DHT22;13988;52.446;13.280;2024-01-16T12:08:26;0.80;99.90
26262;DHT22;13988;52.446;13.280;2024-01-16T12:10:52;0.90;99.90
26262;DHT22;13988;52.446;13.280;2024-01-16T12:13:18;0.90;99.90
26262;DHT22;13988;52.446;13.280;2024-01-16T12:15:44;0.90;99.90
26262;DHT22;13988;52.446;13.280;2024-01-16T12:18:18;0.80;99.90
26262;DHT22;13988;52.446;13.280;2024-01-16T12:20:44;0.90;99.90
26262;DHT22;13988;52.446;13.280;2024-01-16T12:23:09;0.90;99.90
26262;DHT22;13988;52.446;13.280;2024-01-16T12:25:36;0.90;99.90
26262;DHT22;13988;52.446;13.280;2024-01-16T12:28:04;0.90;99.90
26262;DHT22;13988;52.446;13.280;2024-01-16T12:30:31;0.90;99.90
26262;DHT22;13988;52.446;13.280;2024-01-16T12:33:07;1.00;99.90
26262;DHT22;13988;52.446;13.280;2024-01-16T12:35:40;1.10;99.90
26262;DHT22;13988;52.446;13.280;2024-01-16T12:38:08;1.10;99.90
26262;DHT22;13988;52.446;13.280;2024-01-16T12:40:39;1.10;99.90
26262;DHT22;13988;52.446;13.280;2024-01-16T12:43:08;1.10;99.90
26262;DHT22;13988;52.446;13.280;2024-01-16T12:45:37;1.00;99.90
26262;DHT22;13988;52.446;13.280;2024-01-16T12:48:03;1.00;99.90
26262;DHT22;13988;52.446;13.280;2024-01-16T12:50:30;1.10;99.90
26262;DHT22;13988;52.446;13.280;2024-01-16T12:53:05;1.00;99.90
26262;DHT22;13988;52.446;13.280;2024-01-16T12:55:41;0.90;99.90
26262;DHT22;13988;52.446;13.280;2024-01-16T13:00:39;0.90;99.90
26262;DHT22;13988;52.446;13.280;2024-01-16T13:03:07;0.90;99.90
26262;DHT22;13988;52.446;13.280;2024-01-16T13:05:39;1.00;99.90
26262;DHT22;13988;52.446;13.280;2024-01-16T13:08:05;0.90;99.90
26262;DHT22;13988;52.446;13.280;2024-01-16T13:10:31;0.90;99.90
26262;DHT22;13988;52.446;13.280;2024-01-16T13:13:16;0.90;99.90
26262;DHT22;13988;52.446;13.280;2024-01-16T13:15:42;0.90;99.90
26262;DHT22;13988;52.446;13.280;2024-01-16T13:18:21;0.90;99.90
26262;DHT22;13988;52.446;13.280;2024-01-16T13:20:49;1.00;99.90
26262;DHT22;13988;52.446;13.280;2024-01-16T13:23:16;0.90;99.90
26262;DHT22;13988;52.446;13.280;2024-01-16T13:25:46;1.00;99.90
26262;DHT22;13988;52.446;13.280;2024-01-16T13:28:16;1.00;99.90
26262;DHT22;13988;52.446;13.280;2024-01-16T13:30:43;1.00;99.90
26262;DHT22;13988;52.446;13.280;2024-01-16T13:33:09;1.00;99.90
26262;DHT22;13988;52.446;13.280;2024-01-16T13:35:35;1.00;99.90
26262;DHT22;13988;52.446;13.280;2024-01-16T13:38:05;1.00;99.90
26262;DHT22;13988;52.446;13.280;2024-01-16T13:40:31;1.00;99.90
26262;DHT22;13988;52.446;13.280;2024-01-16T13:42:57;1.00;99.90
26262;DHT22;13988;52.446;13.280;2024-01-16T13:45:22;1.00;99.90
26262;DHT22;13988;52.446;13.280;2024-01-16T13:47:48;1.00;99.90
26262;DHT22;13988;52.446;13.280;2024-01-16T13:50:14;1.00;99.90
26262;DHT22;13988;52.446;13.280;2024-01-16T13:52:41;1.00;99.90
26262;DHT22;13988;52.446;13.280;2024-01-16T13:55:07;1.00;99.90
26262;DHT22;13988;52.446;13.280;2024-01-16T13:57:33;1.00;99.90
26262;DHT22;13988;52.446;13.280;2024-01-16T14:00:06;1.10;99.90
26262;DHT22;13988;52.446;13.280;2024-01-16T14:02:32;1.00;99.90
26262;DHT22;13988;52.446;13.280;2024-01-16T14:05:00;1.10;99.90
26262;DHT22;13988;52.446;13.280;2024-01-16T14:07:26;1.10;99.90
26262;DHT22;13988;52.446;13.280;2024-01-16T14:09:52;1.10;99.90
26262;DHT22;13988;52.446;13.280;2024-01-16T14:12:17;1.10;99.90
26262;DHT22;13988;52.446;13.280;2024-01-16T14:14:44;1.10;99.90
26262;DHT22;13988;52.446;13.280;2024-01-16T14:17:11;1.10;99.90
26262;DHT22;13988;52.446;13.280;2024-01-16T14:19:37;1.10;99.90
26262;DHT22;13988;52.446;13.280;2024-01-16T14:22:03;1.10;99.90
26262;DHT22;13988;52.446;13.280;2024-01-16T14:24:29;1.10;99.90
26262;DHT22;13988;52.446;13.280;2024-01-16T14:26:55;1.10;99.90
26262;DHT22;13988;52.446;13.280;2024-01-16T14:29:24;1.10;99.90
26262;DHT22;13988;52.446;13.280;2024-01-16T14:31:51;1.10;99.90
26262;DHT22;13988;52.446;13.280;2024-01-16T14:34:16;1.10;99.90
26262;DHT22;13988;52.446;13.280;2024-01-16T14:36:43;1.10;99.90
26262;DHT22;13988;52.446;13.280;2024-01-16T14:39:08;1.00;99.90
26262;DHT22;13988;52.446;13.280;2024-01-16T14:41:41;1.00;99.90
26262;DHT22;13988;52.446;13.280;2024-01-16T14:44:09;0.90;99.90
26262;DHT22;13988;52.446;13.280;2024-01-16T14:46:35;0.90;99.90
26262;DHT22;13988;52.446;13.280;2024-01-16T14:49:00;0.80;99.90
26262;DHT22;13988;52.446;13.280;2024-01-16T14:51:27;0.80;99.90
26262;DHT22;13988;52.446;13.280;2024-01-16T14:53:53;0.90;99.90
26262;DHT22;13988;52.446;13.280;2024-01-16T14:56:18;0.70;99.90
26262;DHT22;13988;52.446;13.280;2024-01-16T14:58:45;0.60;99.90
26262;DHT22;13988;52.446;13.280;2024-01-16T15:01:11;0.50;99.90
26262;DHT22;13988;52.446;13.280;2024-01-16T15:03:36;0.60;99.90
26262;DHT22;13988;52.446;13.280;2024-01-16T15:06:02;0.60;99.90
26262;DHT22;13988;52.446;13.280;2024-01-16T15:08:28;0.60;99.90
26262;DHT22;13988;52.446;13.280;2024-01-16T15:10:56;0.60;99.90
26262;DHT22;13988;52.446;13.280;2024-01-16T15:13:25;0.50;99.90
26262;DHT22;13988;52.446;13.280;2024-01-16T15:15:51;0.50;99.90
26262;DHT22;13988;52.446;13.280;2024-01-16T15:18:19;0.40;99.90
26262;DHT22;13988;52.446;13.280;2024-01-16T15:20:44;0.40;99.90
26262;DHT22;13988;52.446;13.280;2024-01-16T15:23:11;0.40;99.90
26262;DHT22;13988;52.446;13.280;2024-01-16T15:25:37;0.40;99.90